Time;durP1;ratioP1;P1;durP2;ratioP2;P2;SDS_P1;SDS_P2;PMS_P1;PMS_P2;Temp;Humidity;BMP_temperature;BMP_pressure;BME280_temperature;BME280_humidity;BME280_pressure;Samples;Min_cycle;Max_cycle;Signal;HPM_P1;HPM_P2
2022/07/15 00:02:07;;;;;;;6.40;4.03;;;;;;;27.39;74.86;99604.22;6243746;23;20319;-86
2022/07/15 00:04:33;;;;;;;4.80;3.80;;;;;;;27.28;75.53;99604.06;6244954;23;20429;-86
2022/07/15 00:07:00;;;;;;;4.78;3.95;;;;;;;27.26;75.65;99592.66;6216906;23;20024;-85
2022/07/15 00:12:11;;;;;;;5.22;3.45;;;;;;;27.00;77.18;99595.25;6211805;23;20023;-85
2022/07/15 00:14:38;;;;;;;4.82;4.15;;;;;;;27.00;77.47;99598.78;6244442;23;20008;-85
2022/07/15 00:17:06;;;;;;;4.47;4.07;;;;;;;26.92;77.82;99595.69;6243455;23;20639;-83
2022/07/15 00:19:33;;;;;;;4.45;4.05;;;;;;;26.84;78.81;99583.34;6218682;23;20812;-83
2022/07/15 00:21:58;;;;;;;4.40;4.00;;;;;;;26.82;78.83;99590.88;6243842;23;20058;-86
2022/07/15 00:24:24;;;;;;;7.07;3.75;;;;;;;26.81;78.89;99589.25;6245170;23;20012;-86
2022/07/15 00:26:50;;;;;;;4.80;4.18;;;;;;;26.74;79.25;99584.00;6243317;23;20413;-84
2022/07/15 00:29:15;;;;;;;5.60;3.92;;;;;;;26.70;79.76;99582.03;6269215;22;20134;-81
2022/07/15 00:31:41;;;;;;;6.00;4.05;;;;;;;26.67;79.98;99582.53;6274634;22;20019;-80
2022/07/15 00:34:07;;;;;;;5.38;4.18;;;;;;;26.58;80.86;99579.41;6273304;22;20086;-82
2022/07/15 00:36:32;;;;;;;8.98;4.25;;;;;;;26.58;80.74;99578.59;6245573;22;20019;-81
2022/07/15 00:38:58;;;;;;;4.05;3.75;;;;;;;26.55;80.68;99568.28;6274276;22;20345;-81
2022/07/15 00:41:23;;;;;;;6.75;3.83;;;;;;;26.52;80.91;99574.16;6273165;22;20074;-83
2022/07/15 00:43:49;;;;;;;4.75;4.13;;;;;;;26.51;81.18;99564.44;6246439;22;20012;-82
2022/07/15 00:46:17;;;;;;;4.60;4.20;;;;;;;26.45;81.29;99558.91;6273197;22;20007;-82
2022/07/15 00:48:43;;;;;;;5.30;3.95;;;;;;;26.43;81.45;99555.66;6273977;22;20046;-82
2022/07/15 00:51:08;;;;;;;4.55;3.72;;;;;;;26.39;81.75;99559.88;6273358;22;19999;-83
2022/07/15 00:53:37;;;;;;;4.60;4.20;;;;;;;26.28;82.57;99552.66;6274146;22;20095;-83
2022/07/15 00:56:04;;;;;;;6.25;4.30;;;;;;;26.29;82.59;99559.72;6273201;22;20035;-83
2022/07/15 00:58:32;;;;;;;4.80;4.35;;;;;;;26.32;82.41;99559.25;6273107;22;20031;-85
2022/07/15 01:00:59;;;;;;;4.72;4.28;;;;;;;26.31;82.61;99557.59;6246559;22;20087;-84
2022/07/15 01:03:27;;;;;;;4.30;3.90;;;;;;;26.26;83.42;99560.22;6246558;22;20344;-84
2022/07/15 01:05:54;;;;;;;5.15;4.65;;;;;;;26.17;83.67;99568.94;6247133;22;20010;-81
2022/07/15 01:08:20;;;;;;;5.10;3.78;;;;;;;26.03;84.75;99560.31;6246950;22;20455;-80
2022/07/15 01:10:49;;;;;;;4.78;3.70;;;;;;;26.03;84.35;99560.31;6273701;22;20011;-81
2022/07/15 01:13:15;;;;;;;4.60;4.20;;;;;;;26.01;84.45;99546.22;6245066;22;20377;-80
2022/07/15 01:15:41;;;;;;;6.05;4.05;;;;;;;25.96;84.98;99543.44;6273042;22;20505;-79
2022/07/15 01:18:07;;;;;;;4.55;4.13;;;;;;;25.95;84.82;99548.00;6245695;22;20095;-81
2022/07/15 01:20:41;;;;;;;4.50;4.10;;;;;;;25.86;85.69;99549.44;6246523;22;20475;-80
2022/07/15 01:23:06;;;;;;;5.80;4.30;;;;;;;25.83;85.75;99546.41;6245780;22;20466;-81
2022/07/15 01:25:36;;;;;;;4.43;4.05;;;;;;;25.73;86.17;99554.34;6246154;22;20035;-82
2022/07/15 01:28:08;;;;;;;5.78;4.35;;;;;;;25.79;85.68;99547.97;6244744;22;20016;-83
2022/07/15 01:30:35;;;;;;;4.60;4.20;;;;;;;25.85;85.39;99549.72;6245959;22;20061;-82
2022/07/15 01:33:02;;;;;;;5.28;3.90;;;;;;;25.88;84.75;99546.50;6245305;22;20278;-80
2022/07/15 01:35:28;;;;;;;4.97;4.50;;;;;;;25.86;84.79;99543.25;6245949;22;20451;-80
2022/07/15 01:37:54;;;;;;;5.28;4.60;;;;;;;25.77;85.45;99541.97;6246434;22;20003;-80
2022/07/15 01:40:20;;;;;;;4.50;4.10;;;;;;;25.74;85.54;99545.19;6272797;22;20012;-80
2022/07/15 01:42:45;;;;;;;6.82;4.00;;;;;;;25.72;86.13;99537.31;6220571;22;20030;-81
2022/07/15 01:45:13;;;;;;;4.72;4.30;;;;;;;25.73;86.17;99532.72;6245389;22;20047;-78
2022/07/15 01:47:48;;;;;;;4.60;4.20;;;;;;;25.72;86.11;99531.09;6246295;22;20385;-81
2022/07/15 01:50:37;;;;;;;5.45;4.13;;;;;;;25.69;86.28;99540.47;6261454;22;20015;-81
2022/07/15 01:53:10;;;;;;;9.98;4.63;;;;;;;25.59;86.91;99543.81;6245592;22;20041;-80
2022/07/15 01:55:35;;;;;;;4.60;4.28;;;;;;;25.52;87.26;99537.69;6220898;22;20441;-80
2022/07/15 01:58:01;;;;;;;5.63;3.80;;;;;;;25.52;87.19;99532.28;6245140;22;20062;-78
2022/07/15 02:00:26;;;;;;;4.88;3.92;;;;;;;25.50;87.40;99523.63;6245226;22;20019;-80
2022/07/15 02:02:52;;;;;;;5.15;4.60;;;;;;;25.50;87.51;99528.19;6220359;22;20006;-81
2022/07/15 02:05:20;;;;;;;4.80;4.40;;;;;;;25.41;87.93;99516.13;6245563;22;20102;-80
2022/07/15 02:07:48;;;;;;;4.93;4.53;;;;;;;25.39;88.09;99516.34;6245659;22;20017;-81
2022/07/15 02:10:17;;;;;;;5.55;4.32;;;;;;;25.32;88.41;99521.09;6246068;22;20588;-81
2022/07/15 02:12:47;;;;;;;8.27;4.45;;;;;;;25.28;88.82;99519.91;6245719;22;20008;-81
2022/07/15 02:15:17;;;;;;;4.60;4.30;;;;;;;25.28;88.98;99519.91;6246542;22;20392;-82
2022/07/15 02:17:46;;;;;;;4.72;4.25;;;;;;;25.23;89.32;99522.50;6245842;22;20011;-82
2022/07/15 02:20:13;;;;;;;5.22;4.75;;;;;;;25.13;90.20;99516.91;6272807;22;20026;-82
2022/07/15 02:22:38;;;;;;;5.07;4.78;;;;;;;25.11;90.62;99513.59;6245981;22;20436;-81
2022/07/15 02:25:04;;;;;;;5.30;4.90;;;;;;;25.11;90.69;99519.84;6272158;22;20003;-82
2022/07/15 02:27:31;;;;;;;5.90;5.35;;;;;;;24.95;92.27;99517.03;6245650;22;20022;-83
2022/07/15 02:29:56;;;;;;;6.35;4.75;;;;;;;24.97;92.10;99523.03;6245279;22;20434;-82
2022/07/15 02:32:23;;;;;;;6.90;5.25;;;;;;;24.98;91.98;99519.25;6244245;22;20050;-81
2022/07/15 02:34:48;;;;;;;6.53;4.80;;;;;;;24.98;92.15;99519.25;6244978;22;20018;-81
2022/07/15 02:37:14;;;;;;;5.15;4.70;;;;;;;24.95;92.66;99522.44;6244862;22;20374;-81
2022/07/15 02:39:39;;;;;;;6.53;5.70;;;;;;;24.92;93.08;99520.22;6245480;22;20085;-80
2022/07/15 02:42:06;;;;;;;6.32;5.30;;;;;;;24.82;93.63;99516.19;6245275;22;20015;-82
2022/07/15 02:44:32;;;;;;;10.10;5.15;;;;;;;24.71;94.80;99518.91;6245115;22;20373;-81
2022/07/15 02:46:58;;;;;;;5.50;5.10;;;;;;;24.80;94.20;99512.91;6271928;22;20023;-84
2022/07/15 02:49:27;;;;;;;5.30;4.90;;;;;;;24.84;94.15;99513.28;6245083;22;20019;-82
2022/07/15 02:51:54;;;;;;;4.85;4.47;;;;;;;24.83;94.27;99509.75;6245450;22;20035;-83
2022/07/15 02:54:22;;;;;;;6.60;5.00;;;;;;;24.86;93.83;99517.38;6245197;22;20008;-81
2022/07/15 02:56:48;;;;;;;5.10;4.60;;;;;;;24.86;94.07;99514.66;6245913;22;20012;-81
2022/07/15 02:59:13;;;;;;;9.65;5.30;;;;;;;24.86;94.33;99511.97;6245810;22;20307;-79
2022/07/15 03:01:39;;;;;;;5.07;4.57;;;;;;;24.80;94.57;99512.09;6244693;22;20008;-80
2022/07/15 03:04:05;;;;;;;5.10;4.70;;;;;;;24.86;94.39;99509.28;6219140;22;20344;-80
2022/07/15 03:06:30;;;;;;;4.95;4.55;;;;;;;24.86;94.25;99514.66;6272269;22;20080;-81
2022/07/15 03:08:58;;;;;;;5.80;5.30;;;;;;;24.90;93.09;99511.53;6245556;22;20416;-81
2022/07/15 03:11:24;;;;;;;5.22;4.80;;;;;;;24.92;92.69;99506.75;6245528;22;20011;-81
2022/07/15 03:13:50;;;;;;;5.20;4.80;;;;;;;24.86;93.82;99511.16;6244952;22;20045;-81
2022/07/15 03:16:15;;;;;;;5.78;4.95;;;;;;;24.87;94.32;99508.22;6244667;22;20094;-81
2022/07/15 03:18:45;;;;;;;5.43;4.93;;;;;;;24.84;94.82;99503.31;6244583;22;20050;-81
2022/07/15 03:21:11;;;;;;;6.63;5.20;;;;;;;24.80;95.69;99502.13;6244699;22;20008;-81
2022/07/15 03:23:37;;;;;;;6.57;5.50;;;;;;;24.79;95.72;99503.19;6245127;22;20014;-81
2022/07/15 03:26:02;;;;;;;7.25;6.55;;;;;;;24.69;96.19;99504.81;6244803;22;20007;-82
2022/07/15 03:28:29;;;;;;;5.68;5.28;;;;;;;24.63;96.41;99501.19;6244683;22;20023;-82
2022/07/15 03:30:56;;;;;;;5.88;5.25;;;;;;;24.56;96.66;99503.22;6272581;22;20012;-81
2022/07/15 03:33:23;;;;;;;9.70;5.70;;;;;;;24.49;96.96;99505.19;6244424;22;20027;-81
2022/07/15 03:35:49;;;;;;;10.25;6.03;;;;;;;24.41;97.52;99511.75;6272154;22;20083;-81
2022/07/15 03:38:18;;;;;;;8.13;5.90;;;;;;;24.37;97.88;99507.06;6245036;22;20026;-80
2022/07/15 03:40:44;;;;;;;5.88;5.40;;;;;;;24.26;98.61;99502.47;6245288;22;20016;-82
2022/07/15 03:43:10;;;;;;;6.38;5.78;;;;;;;24.04;100.00;99497.59;6244444;22;20008;-82
2022/07/15 03:45:35;;;;;;;6.32;5.72;;;;;;;23.94;100.00;99494.63;6244875;22;20094;-80
2022/07/15 03:48:01;;;;;;;6.40;5.93;;;;;;;23.99;100.00;99505.53;6244299;22;20340;-80
2022/07/15 03:50:30;;;;;;;6.13;5.63;;;;;;;24.05;100.00;99499.22;6245167;22;20028;-81
2022/07/15 03:52:55;;;;;;;7.45;6.80;;;;;;;24.05;100.00;99504.63;6246688;22;20014;-84
2022/07/15 03:55:21;;;;;;;7.45;6.03;;;;;;;24.07;100.00;99502.53;6245221;22;20016;-82
2022/07/15 03:57:47;;;;;;;9.32;6.53;;;;;;;24.09;100.00;99505.78;6272595;22;20059;-83
2022/07/15 04:00:13;;;;;;;6.03;5.55;;;;;;;24.03;100.00;99506.72;6270249;22;20004;-81
2022/07/15 04:02:41;;;;;;;8.05;5.90;;;;;;;23.85;100.00;99509.50;6272687;22;20019;-80
2022/07/15 04:05:07;;;;;;;6.50;5.90;;;;;;;23.79;100.00;99505.03;6244578;22;20016;-81
2022/07/15 04:07:33;;;;;;;7.15;6.45;;;;;;;23.66;100.00;99506.03;6245253;22;20004;-82
2022/07/15 04:09:58;;;;;;;10.07;6.68;;;;;;;23.59;100.00;99504.47;6244892;22;20023;-82
2022/07/15 04:12:24;;;;;;;7.85;6.18;;;;;;;23.70;100.00;99501.00;6273343;22;20022;-83
2022/07/15 04:14:49;;;;;;;7.40;6.57;;;;;;;23.72;100.00;99508.88;6272809;22;20016;-83
2022/07/15 04:17:16;;;;;;;8.82;6.32;;;;;;;23.87;100.00;99507.38;6245381;22;20003;-83
2022/07/15 04:19:42;;;;;;;7.55;6.82;;;;;;;23.88;100.00;99503.66;6272582;22;20022;-84
2022/07/15 04:22:07;;;;;;;7.60;6.45;;;;;;;23.94;100.00;99500.03;6245076;22;20011;-82
2022/07/15 04:24:43;;;;;;;8.77;6.80;;;;;;;23.98;100.00;99503.91;6246451;22;20008;-83
2022/07/15 04:27:12;;;;;;;6.60;5.88;;;;;;;24.01;100.00;99502.63;6245711;22;20008;-81
2022/07/15 04:29:38;;;;;;;6.93;6.22;;;;;;;24.09;100.00;99505.78;6246087;22;20512;-82
2022/07/15 04:32:05;;;;;;;6.15;5.55;;;;;;;24.07;100.00;99510.63;6247783;22;20071;-83
2022/07/15 04:34:35;;;;;;;7.60;6.90;;;;;;;24.14;100.00;99512.38;6248583;22;20316;-83
2022/07/15 04:37:00;;;;;;;7.35;6.63;;;;;;;24.14;100.00;99517.78;6282000;22;20278;-83
2022/07/15 04:39:27;;;;;;;6.95;6.25;;;;;;;24.12;100.00;99519.88;6266758;22;20015;-84
2022/07/15 04:41:52;;;;;;;7.90;7.13;;;;;;;23.84;100.00;99518.63;6299005;22;20008;-85
2022/07/15 04:44:18;;;;;;;7.90;7.10;;;;;;;23.67;100.00;99517.66;6272248;22;20019;-83
2022/07/15 04:46:44;;;;;;;6.82;5.82;;;;;;;23.74;100.00;99512.16;6272546;22;20010;-83
2022/07/15 04:52:09;;;;;;;9.00;6.65;;;;;;;23.79;100.00;99520.38;6259805;22;20012;-85
2022/07/15 04:54:39;;;;;;;7.30;6.40;;;;;;;23.82;100.00;99515.34;6268009;22;20022;-85
2022/07/15 04:57:04;;;;;;;7.28;6.68;;;;;;;23.84;100.00;99513.25;6289049;22;20008;-79
2022/07/15 04:59:30;;;;;;;7.00;6.40;;;;;;;23.95;100.00;99515.16;6274319;22;20012;-79
2022/07/15 05:01:55;;;;;;;10.95;8.57;;;;;;;24.01;100.00;99518.81;6282379;22;20042;-83
2022/07/15 05:04:33;;;;;;;10.38;7.18;;;;;;;24.08;100.00;99514.97;6251786;22;20085;-82
2022/07/15 05:06:59;;;;;;;7.30;6.65;;;;;;;24.14;100.00;99517.78;6249586;22;20012;-80
2022/07/15 05:09:25;;;;;;;7.50;6.80;;;;;;;24.08;100.00;99509.56;6258595;22;20038;-80
2022/07/15 05:11:50;;;;;;;8.60;7.45;;;;;;;24.06;100.00;99510.84;6254768;22;20459;-81
2022/07/15 05:14:17;;;;;;;8.13;7.45;;;;;;;24.20;100.00;99512.31;6249609;22;20063;-82
2022/07/15 05:16:42;;;;;;;9.23;7.43;;;;;;;24.22;100.00;99509.38;6225067;22;20216;-82
2022/07/15 05:19:08;;;;;;;8.27;7.55;;;;;;;24.28;100.00;99514.66;6275284;22;20015;-81
2022/07/15 05:21:33;;;;;;;7.75;7.03;;;;;;;24.31;100.00;99513.38;6248458;22;20082;-82
2022/07/15 05:23:59;;;;;;;8.32;7.45;;;;;;;24.27;100.00;99520.31;6250375;22;20016;-82
2022/07/15 05:26:25;;;;;;;9.20;7.05;;;;;;;24.31;100.00;99521.47;6251059;22;20008;-81
2022/07/15 05:28:51;;;;;;;8.60;7.82;;;;;;;24.36;100.00;99522.41;6250867;22;20035;-80
2022/07/15 05:31:17;;;;;;;9.75;8.70;;;;;;;24.27;100.00;99512.22;6256205;22;20015;-81
2022/07/15 05:33:45;;;;;;;9.15;8.35;;;;;;;24.42;100.00;99516.09;6270587;22;20008;-81
2022/07/15 05:36:12;;;;;;;8.35;7.75;;;;;;;24.44;100.00;99523.97;6267784;22;20008;-80
2022/07/15 05:38:40;;;;;;;8.90;8.10;;;;;;;24.47;100.00;99524.31;6267536;22;20000;-80
2022/07/15 05:41:06;;;;;;;8.88;8.07;;;;;;;24.56;100.00;99516.69;6285820;22;20004;-83
2022/07/15 05:43:32;;;;;;;8.93;8.07;;;;;;;24.59;100.00;99527.00;6273974;22;20023;-83
2022/07/15 05:45:58;;;;;;;15.50;10.10;;;;;;;24.51;100.00;99530.03;6246912;22;20012;-81
2022/07/15 05:48:27;;;;;;;10.48;9.57;;;;;;;24.42;100.00;99526.88;6247008;22;20031;-82
2022/07/15 05:50:54;;;;;;;13.15;11.90;;;;;;;24.43;100.00;99522.31;6247246;22;20008;-83
2022/07/15 05:53:22;;;;;;;13.48;10.82;;;;;;;24.50;100.00;99525.72;6220638;22;20015;-82
2022/07/15 05:55:48;;;;;;;12.02;11.02;;;;;;;24.53;100.00;99527.94;6246256;22;20348;-81
2022/07/15 05:58:18;;;;;;;13.93;12.75;;;;;;;24.53;100.00;99529.81;6245854;22;20015;-82
2022/07/15 06:00:44;;;;;;;14.57;13.10;;;;;;;24.55;100.00;99519.63;6246449;22;20088;-83
2022/07/15 06:03:09;;;;;;;16.17;14.20;;;;;;;24.62;100.00;99526.56;6245891;22;20031;-82
2022/07/15 06:05:39;;;;;;;16.30;14.55;;;;;;;24.67;100.00;99523.97;6245733;22;20082;-84
2022/07/15 06:08:04;;;;;;;15.30;13.77;;;;;;;24.75;100.00;99526.28;6269550;22;20007;-84
2022/07/15 06:10:33;;;;;;;15.55;14.15;;;;;;;24.84;100.00;99518.69;6243398;22;20057;-84
2022/07/15 06:12:59;;;;;;;14.85;13.57;;;;;;;24.91;100.00;99530.22;6243679;22;20035;-85
2022/07/15 06:15:26;;;;;;;13.05;11.93;;;;;;;24.94;100.00;99523.50;6244383;22;20016;-85
2022/07/15 06:17:53;;;;;;;12.98;11.77;;;;;;;24.99;100.00;99518.22;6246374;22;20030;-85
2022/07/15 06:20:21;;;;;;;14.35;13.13;;;;;;;25.06;100.00;99521.59;6271663;22;20003;-86
2022/07/15 06:22:47;;;;;;;12.48;11.38;;;;;;;25.06;100.00;99516.19;6245136;22;20039;-85
2022/07/15 06:25:12;;;;;;;11.75;10.57;;;;;;;25.11;100.00;99524.41;6271961;22;20452;-82
2022/07/15 06:27:39;;;;;;;11.32;10.30;;;;;;;25.11;99.62;99519.84;6243682;22;20018;-85
2022/07/15 06:30:05;;;;;;;11.00;9.88;;;;;;;25.12;99.51;99526.88;6242935;22;20019;-86
2022/07/15 06:32:31;;;;;;;10.57;9.50;;;;;;;25.18;99.66;99525.09;6243561;22;20102;-84
2022/07/15 06:34:58;;;;;;;10.05;9.35;;;;;;;25.21;99.12;99522.75;6242868;22;20391;-84
2022/07/15 06:37:23;;;;;;;10.00;9.10;;;;;;;25.25;99.16;99521.22;6270352;22;20046;-84
2022/07/15 06:39:49;;;;;;;9.88;9.07;;;;;;;25.34;99.00;99521.66;6270400;22;20015;-84
2022/07/15 06:42:15;;;;;;;9.30;8.40;;;;;;;25.39;98.71;99527.16;6243691;22;20042;-84
2022/07/15 06:44:40;;;;;;;9.48;7.93;;;;;;;25.46;97.88;99527.84;6242725;22;20460;-81
2022/07/15 06:47:08;;;;;;;9.25;8.40;;;;;;;25.54;97.24;99529.34;6268817;22;20011;-81
2022/07/15 06:49:36;;;;;;;8.23;7.50;;;;;;;25.63;96.66;99528.75;6269226;22;20325;-82
2022/07/15 06:52:02;;;;;;;7.82;7.18;;;;;;;25.68;95.33;99528.84;6269066;22;20011;-83
2022/07/15 06:54:28;;;;;;;7.50;6.80;;;;;;;25.74;95.06;99529.78;6241423;22;20073;-83
2022/07/15 06:56:53;;;;;;;8.55;6.95;;;;;;;25.79;93.79;99529.06;6242422;22;20007;-81
2022/07/15 06:59:18;;;;;;;6.75;6.15;;;;;;;25.91;93.52;99532.53;6267890;22;20011;-79
2022/07/15 07:01:45;;;;;;;7.53;6.85;;;;;;;26.00;92.50;99522.94;6241617;22;20012;-80
2022/07/15 07:04:11;;;;;;;7.13;6.32;;;;;;;26.08;91.51;99527.97;6216254;22;20070;-81
2022/07/15 07:06:36;;;;;;;6.90;6.20;;;;;;;26.14;90.80;99521.56;6241595;22;20015;-79
2022/07/15 07:09:03;;;;;;;6.72;6.00;;;;;;;26.23;90.42;99528.25;6267923;22;20019;-81
2022/07/15 07:11:29;;;;;;;6.20;5.80;;;;;;;26.35;88.26;99520.88;6240421;22;20400;-79
2022/07/15 07:13:54;;;;;;;15.57;6.53;;;;;;;26.41;87.53;99524.47;6269748;22;20019;-81
2022/07/15 07:16:20;;;;;;;7.40;5.93;;;;;;;26.44;87.34;99515.88;6271711;22;20016;-84
2022/07/15 07:18:47;;;;;;;6.28;5.78;;;;;;;26.48;87.05;99523.25;6272529;22;20015;-83
2022/07/15 07:21:13;;;;;;;6.55;5.93;;;;;;;26.52;86.17;99525.44;6218680;22;20403;-80
2022/07/15 07:23:39;;;;;;;5.88;5.45;;;;;;;26.55;86.43;99525.78;6271739;22;20003;-81
2022/07/15 07:26:07;;;;;;;5.90;5.40;;;;;;;26.61;85.50;99524.81;6272151;22;20008;-82
2022/07/15 07:28:33;;;;;;;5.63;5.15;;;;;;;26.68;84.70;99519.22;6273612;22;20011;-83
2022/07/15 07:30:59;;;;;;;5.93;5.32;;;;;;;26.73;85.25;99519.28;6247197;22;20030;-81
2022/07/15 07:33:25;;;;;;;5.90;5.50;;;;;;;26.79;84.91;99521.00;6272142;22;20034;-82
2022/07/15 07:35:51;;;;;;;5.35;4.85;;;;;;;26.87;82.56;99520.56;6245810;22;20365;-83
2022/07/15 07:38:17;;;;;;;5.43;4.82;;;;;;;26.95;79.55;99519.34;6245618;22;20011;-80
2022/07/15 07:40:43;;;;;;;5.53;5.00;;;;;;;26.98;76.86;99519.66;6246259;22;20010;-83
2022/07/15 07:43:09;;;;;;;4.70;4.40;;;;;;;27.07;73.82;99511.94;6246559;22;20077;-88
2022/07/15 07:45:35;;;;;;;5.13;4.63;;;;;;;27.09;75.11;99509.81;6246484;22;20008;-86
2022/07/15 07:48:00;;;;;;;5.40;5.00;;;;;;;27.11;76.12;99508.47;6272863;22;20004;-83
2022/07/15 07:50:26;;;;;;;5.35;4.80;;;;;;;27.17;75.57;99502.03;6273005;22;20384;-83
2022/07/15 07:52:51;;;;;;;5.55;5.07;;;;;;;27.21;75.54;99497.78;6272900;22;20305;-81
2022/07/15 07:55:17;;;;;;;5.43;4.93;;;;;;;27.27;75.63;99502.16;6271456;22;20011;-83
2022/07/15 07:57:49;;;;;;;5.97;4.90;;;;;;;27.32;77.16;99506.84;6273357;22;20347;-76
2022/07/15 08:00:16;;;;;;;4.90;4.50;;;;;;;27.35;76.63;99502.78;6272533;22;20012;-82
2022/07/15 08:02:42;;;;;;;5.25;4.80;;;;;;;27.39;75.92;99495.81;6273090;22;20016;-85
2022/07/15 08:05:08;;;;;;;5.68;5.05;;;;;;;27.40;76.61;99495.53;6272145;22;20037;-86
2022/07/15 08:07:35;;;;;;;5.78;4.80;;;;;;;27.42;76.64;99495.28;6247328;22;20432;-91
2022/07/15 08:10:03;;;;;;;5.40;4.82;;;;;;;27.49;75.57;99499.47;6273654;22;20126;-86
2022/07/15 08:12:29;;;;;;;5.97;4.75;;;;;;;27.55;74.90;99497.66;6273931;22;20018;-85
2022/07/15 08:14:54;;;;;;;5.25;4.85;;;;;;;27.58;75.09;99491.72;6274340;22;20035;-86
2022/07/15 08:17:21;;;;;;;6.80;4.93;;;;;;;27.62;75.26;99487.44;6273488;22;20004;-87
2022/07/15 08:19:47;;;;;;;5.35;5.00;;;;;;;27.61;75.36;99488.50;6272950;22;20448;-82
2022/07/15 08:22:12;;;;;;;5.72;5.18;;;;;;;27.63;75.66;99495.28;6281708;22;20014;-84
2022/07/15 08:24:38;;;;;;;5.35;4.97;;;;;;;27.71;75.59;99491.31;6250150;22;20027;-84
2022/07/15 08:27:03;;;;;;;5.57;4.60;;;;;;;27.75;75.71;99489.72;6276187;22;20018;-85
2022/07/15 08:29:29;;;;;;;5.78;5.20;;;;;;;27.80;75.81;99484.38;6275846;22;20082;-87
2022/07/15 08:31:54;;;;;;;5.60;5.20;;;;;;;27.82;75.39;99482.19;6248328;22;20008;-81
2022/07/15 08:34:20;;;;;;;5.43;4.93;;;;;;;27.86;74.92;99477.91;6275984;22;20011;-82
2022/07/15 08:36:45;;;;;;;5.68;5.00;;;;;;;27.91;75.41;99477.13;6278569;22;20012;-83
2022/07/15 08:39:11;;;;;;;7.03;5.50;;;;;;;27.95;77.69;99481.78;6277915;22;20451;-84
2022/07/15 08:41:37;;;;;;;5.82;5.40;;;;;;;28.00;78.08;99478.28;6247371;22;20074;-84
2022/07/15 08:44:04;;;;;;;5.43;5.03;;;;;;;28.04;78.40;99469.38;6247293;22;20498;-89
2022/07/15 08:46:32;;;;;;;8.13;5.70;;;;;;;28.16;79.00;99468.44;6272054;22;20090;-84
2022/07/15 08:49:04;;;;;;;5.72;5.25;;;;;;;28.21;79.43;99473.91;6271540;22;20026;-82
2022/07/15 08:51:36;;;;;;;6.20;5.60;;;;;;;28.28;79.51;99474.47;6271794;22;20465;-84
2022/07/15 08:54:02;;;;;;;6.10;5.60;;;;;;;28.32;79.43;99471.00;6271282;22;20437;-81
2022/07/15 08:56:27;;;;;;;7.72;5.85;;;;;;;28.38;79.15;99466.44;6273196;22;20022;-84
2022/07/15 08:58:59;;;;;;;5.38;4.90;;;;;;;28.44;78.97;99468.09;6272475;22;20003;-81
2022/07/15 09:01:25;;;;;;;5.63;4.97;;;;;;;28.46;78.81;99460.50;6270897;22;20015;-83
2022/07/15 09:03:51;;;;;;;8.48;5.30;;;;;;;28.52;78.09;99460.25;6272533;22;20018;-83
2022/07/15 09:06:36;;;;;;;5.70;5.18;;;;;;;28.58;77.18;99450.25;6271364;22;20329;-84
2022/07/15 09:09:24;;;;;;;8.02;5.35;;;;;;;28.62;76.86;99454.09;6272495;22;20034;-86
2022/07/15 09:12:09;;;;;;;6.30;5.80;;;;;;;28.62;76.86;99458.72;6272540;22;20012;-85
2022/07/15 09:14:37;;;;;;;6.10;5.40;;;;;;;28.63;77.09;99455.72;6273327;22;20007;-83
2022/07/15 09:17:11;;;;;;;6.00;5.43;;;;;;;28.69;77.00;99453.84;6273596;22;20091;-85
2022/07/15 09:19:55;;;;;;;9.43;6.28;;;;;;;28.71;76.41;99463.38;6274760;22;20390;-83
2022/07/15 09:22:21;;;;;;;6.15;5.55;;;;;;;28.76;75.59;99468.03;6274161;22;20016;-82
2022/07/15 09:24:50;;;;;;;8.32;5.53;;;;;;;28.78;74.42;99466.72;6273924;22;20010;-83
2022/07/15 09:27:32;;;;;;;8.63;5.38;;;;;;;28.79;73.97;99465.63;6246739;22;20046;-83
2022/07/15 09:36:15;;;;;;;5.53;5.10;;;;;;;28.98;72.05;99459.75;6272801;22;20042;-84
2022/07/15 09:38:41;;;;;;;7.15;5.68;;;;;;;29.01;72.73;99456.47;6273121;22;20090;-84
2022/07/15 09:41:25;;;;;;;5.95;5.53;;;;;;;29.02;73.38;99439.09;6272441;22;20070;-84
2022/07/15 09:44:10;;;;;;;5.95;5.18;;;;;;;29.10;74.62;99444.03;6273281;22;20700;-83
2022/07/15 09:46:59;;;;;;;5.45;4.95;;;;;;;29.18;74.44;99440.78;6272607;22;20004;-83
2022/07/15 09:49:27;;;;;;;8.57;6.23;;;;;;;29.23;74.67;99440.81;6245703;22;20011;-84
2022/07/15 09:51:58;;;;;;;8.88;6.13;;;;;;;29.23;74.59;99433.47;6272711;22;20645;-85
2022/07/15 09:54:26;;;;;;;6.60;5.32;;;;;;;29.29;73.88;99431.59;6272781;22;20380;-84
2022/07/15 09:56:52;;;;;;;6.57;5.80;;;;;;;29.38;72.80;99435.47;6273085;22;20004;-86
2022/07/15 09:59:19;;;;;;;12.60;5.80;;;;;;;29.49;71.87;99437.09;6272257;22;20012;-86
2022/07/15 10:01:48;;;;;;;8.80;5.68;;;;;;;29.56;71.47;99432.22;6272506;22;20426;-85
2022/07/15 10:04:16;;;;;;;7.82;5.13;;;;;;;29.56;71.92;99434.97;6272817;22;20012;-85
2022/07/15 10:06:42;;;;;;;5.40;5.00;;;;;;;29.56;72.34;99426.78;6272650;22;20087;-85
2022/07/15 10:09:09;;;;;;;7.15;5.80;;;;;;;29.59;72.37;99431.69;6271683;22;20031;-84
2022/07/15 10:11:41;;;;;;;5.85;5.45;;;;;;;29.61;71.82;99432.25;6272294;22;20011;-82
2022/07/15 10:14:08;;;;;;;8.73;6.10;;;;;;;29.71;70.92;99429.53;6272180;22;20504;-86
2022/07/15 10:16:59;;;;;;;5.50;5.10;;;;;;;29.73;71.20;99431.16;6272059;22;20007;-83
2022/07/15 10:19:46;;;;;;;7.18;5.57;;;;;;;29.75;72.11;99412.69;6272296;22;20019;-84
2022/07/15 10:22:36;;;;;;;8.88;5.32;;;;;;;29.86;72.84;99414.31;6272865;22;20399;-85
2022/07/15 10:25:18;;;;;;;8.73;5.45;;;;;;;29.98;71.28;99418.41;6272989;22;20142;-86
2022/07/15 10:28:08;;;;;;;5.43;4.93;;;;;;;30.05;70.57;99423.56;6273003;22;20372;-85
2022/07/15 10:30:34;;;;;;;5.57;5.18;;;;;;;30.07;69.58;99414.06;6274237;22;20083;-85
2022/07/15 10:33:16;;;;;;;6.35;5.05;;;;;;;30.13;67.91;99414.88;6273136;22;20042;-85
2022/07/15 10:35:43;;;;;;;5.32;4.82;;;;;;;30.16;67.41;99411.56;6272256;22;20073;-85
2022/07/15 10:38:25;;;;;;;9.95;5.15;;;;;;;30.18;67.33;99406.69;6272311;22;20012;-84
2022/07/15 10:41:24;;;;;;;6.22;4.13;;;;;;;30.21;66.93;99411.59;6272582;22;20479;-86
2022/07/15 10:43:54;;;;;;;7.50;4.10;;;;;;;30.33;65.46;99403.97;6269273;22;20352;-86
2022/07/15 10:46:27;;;;;;;;;;;;;;;30.48;64.37;99395.78;6272633;22;20015;-88
2022/07/15 10:48:58;;;;;;;5.18;4.78;;;;;;;30.55;64.44;99394.66;6272794;22;19918;-85
2022/07/15 10:51:45;;;;;;;5.78;4.22;;;;;;;30.56;63.30;99394.41;6272283;22;20087;-83
2022/07/15 10:54:17;;;;;;;6.20;4.47;;;;;;;30.57;62.14;99396.03;6272243;22;20019;-85
2022/07/15 10:56:45;;;;;;;4.35;3.95;;;;;;;30.62;61.20;99395.19;6272613;22;20034;-85
2022/07/15 10:59:21;;;;;;;4.80;4.35;;;;;;;30.64;61.77;99393.81;6272215;22;20011;-84
2022/07/15 11:01:49;;;;;;;5.72;4.72;;;;;;;30.59;62.30;99390.28;6272684;22;20012;-85
2022/07/15 11:04:14;;;;;;;6.88;4.00;;;;;;;30.65;61.24;99387.28;6271897;22;20023;-85
2022/07/15 11:07:02;;;;;;;6.00;3.85;;;;;;;30.68;60.12;99388.63;6245127;22;20011;-84
2022/07/15 11:09:46;;;;;;;5.50;3.67;;;;;;;30.86;60.97;99386.13;6272609;22;20016;-85
2022/07/15 11:12:12;;;;;;;3.83;3.53;;;;;;;30.79;60.80;99369.25;6272023;22;20014;-86
2022/07/15 11:14:52;;;;;;;4.10;3.85;;;;;;;30.95;59.70;99371.88;6245241;22;20349;-85
2022/07/15 11:17:39;;;;;;;4.25;3.60;;;;;;;30.97;59.71;99369.72;6272539;22;20008;-85
2022/07/15 11:20:16;;;;;;;4.35;3.92;;;;;;;30.94;59.56;99365.63;6272164;22;20393;-85
2022/07/15 11:22:47;;;;;;;3.95;3.65;;;;;;;30.91;59.89;99366.19;6272555;22;20019;-86
2022/07/15 11:25:20;;;;;;;4.22;3.83;;;;;;;30.88;58.61;99362.09;6271872;22;20065;-86
2022/07/15 11:28:00;;;;;;;4.03;3.17;;;;;;;30.85;58.57;99353.69;6245892;22;20012;-85
2022/07/15 11:30:33;;;;;;;4.00;3.70;;;;;;;30.80;58.49;99351.00;6272270;22;20011;-86
2022/07/15 11:33:01;;;;;;;4.97;3.45;;;;;;;30.79;59.27;99347.47;6272553;22;20051;-86
2022/07/15 11:35:30;;;;;;;4.25;3.78;;;;;;;30.91;58.53;99344.41;6272742;22;20039;-85
2022/07/15 11:38:01;;;;;;;3.20;2.78;;;;;;;31.08;51.52;99338.59;6272570;22;20000;-86
2022/07/15 11:46:01;;;;;;;3.65;3.22;;;;;;;31.44;48.94;99339.19;6274976;22;20027;-84
2022/07/15 11:48:27;;;;;;;2.72;2.53;;;;;;;31.53;46.22;99326.56;6275655;22;20031;-86
2022/07/15 11:50:56;;;;;;;3.13;2.75;;;;;;;31.65;45.89;99321.56;6274243;22;20329;-85
2022/07/15 11:53:23;;;;;;;3.03;2.72;;;;;;;31.84;47.24;99330.69;6274754;22;20016;-85